createdAt,value
2022-08-04T00:00:22.187Z,21.60
2022-08-04T00:02:33.470Z,21.70
2022-08-04T00:05:01.295Z,21.70
2022-08-04T00:07:44.349Z,21.70
2022-08-04T00:10:01.572Z,21.70
2022-08-04T00:12:08.480Z,21.60
2022-08-04T00:14:16.476Z,21.60
2022-08-04T00:16:20.829Z,21.60
2022-08-04T00:18:56.418Z,21.60
2022-08-04T00:21:05.325Z,21.60
2022-08-04T00:23:09.288Z,21.60
2022-08-04T00:25:12.359Z,21.60
2022-08-04T00:27:15.797Z,21.60
2022-08-04T00:29:18.585Z,21.60
2022-08-04T00:31:54.332Z,21.70
2022-08-04T00:33:46.825Z,21.60
2022-08-04T00:35:50.105Z,21.60
2022-08-04T00:37:53.555Z,21.60
2022-08-04T00:39:57.456Z,21.60
2022-08-04T00:42:37.435Z,21.50
2022-08-04T00:46:15.640Z,21.50
2022-08-04T00:48:37.787Z,21.40
2022-08-04T00:51:08.525Z,21.20
2022-08-04T00:53:30.061Z,21.10
2022-08-04T00:56:15.541Z,21.10
2022-08-04T00:59:08.063Z,21.00
2022-08-04T01:01:52.985Z,21.10
2022-08-04T01:04:19.480Z,21.00
2022-08-04T01:07:10.539Z,21.10
2022-08-04T01:09:54.082Z,21.00
2022-08-04T01:12:23.190Z,21.00
2022-08-04T01:14:43.595Z,21.00
2022-08-04T01:16:53.656Z,21.00
2022-08-04T01:19:00.641Z,21.00
2022-08-04T01:21:30.205Z,20.90
2022-08-04T01:24:16.321Z,20.90
2022-08-04T01:26:44.144Z,20.90
2022-08-04T01:29:09.548Z,20.90
2022-08-04T01:31:24.065Z,20.80
2022-08-04T01:33:30.370Z,20.80
2022-08-04T01:35:55.690Z,20.80
2022-08-04T01:38:20.076Z,20.80
2022-08-04T01:40:27.881Z,20.70
2022-08-04T01:42:34.131Z,20.70
2022-08-04T01:44:39.818Z,20.80
2022-08-04T01:46:42.644Z,20.70
2022-08-04T01:48:48.003Z,20.70
2022-08-04T01:50:53.937Z,20.60
2022-08-04T01:52:56.809Z,20.60
2022-08-04T01:55:01.647Z,20.60
2022-08-04T01:57:37.496Z,20.50
2022-08-04T01:59:31.064Z,20.50
2022-08-04T02:01:36.761Z,20.50
2022-08-04T02:04:20.674Z,20.50
2022-08-04T02:06:28.326Z,20.40
2022-08-04T02:09:20.696Z,20.40
2022-08-04T02:11:23.690Z,20.30
2022-08-04T02:13:38.289Z,20.20
2022-08-04T02:16:09.107Z,20.20
2022-08-04T02:18:27.277Z,20.10
2022-08-04T02:20:41.218Z,20.10
2022-08-04T02:23:06.838Z,20.10
2022-08-04T02:25:11.964Z,20.10
2022-08-04T02:27:15.440Z,20.10
2022-08-04T02:29:39.445Z,20.10
2022-08-04T02:32:07.849Z,20.10
2022-08-04T02:34:25.973Z,20.00
2022-08-04T02:36:39.100Z,20.00
2022-08-04T02:39:01.340Z,20.10
2022-08-04T02:41:06.099Z,20.00
2022-08-04T02:43:10.738Z,20.00
2022-08-04T02:45:14.593Z,20.00
2022-08-04T02:47:24.410Z,20.00
2022-08-04T02:49:47.898Z,20.00
2022-08-04T02:51:57.521Z,20.00
2022-08-04T02:54:04.035Z,19.90
2022-08-04T02:56:09.289Z,19.90
2022-08-04T02:58:15.419Z,19.90
2022-08-04T03:00:19.973Z,19.80
2022-08-04T03:02:40.943Z,19.80
2022-08-04T03:04:51.486Z,19.80
2022-08-04T03:07:07.995Z,19.70
2022-08-04T03:09:24.811Z,19.70
2022-08-04T03:11:45.649Z,19.70
2022-08-04T03:14:33.479Z,19.60
2022-08-04T03:17:07.287Z,19.50
2022-08-04T03:19:46.476Z,19.40
2022-08-04T03:22:22.833Z,19.30
2022-08-04T03:25:15.337Z,19.30
2022-08-04T03:28:19.087Z,19.30
2022-08-04T03:31:08.234Z,19.20
2022-08-04T03:33:57.064Z,19.20
2022-08-04T03:36:35.356Z,19.10
2022-08-04T03:39:23.228Z,19.10
2022-08-04T03:41:54.927Z,19.10
2022-08-04T03:44:27.522Z,19.10
2022-08-04T03:47:29.247Z,19.10
2022-08-04T03:50:07.564Z,19.20
2022-08-04T03:53:09.030Z,19.20
2022-08-04T03:55:58.408Z,19.30
2022-08-04T03:58:40.629Z,19.20
2022-08-04T04:02:01.336Z,19.20
2022-08-04T04:04:50.745Z,19.20
2022-08-04T04:07:36.063Z,19.10
2022-08-04T04:10:12.394Z,19.10
2022-08-04T04:12:30.745Z,19.10
2022-08-04T04:15:06.629Z,19.20
2022-08-04T04:17:17.816Z,19.20
2022-08-04T04:19:58.466Z,19.20
2022-08-04T04:22:23.304Z,19.30
2022-08-04T04:24:38.779Z,19.30
2022-08-04T04:27:10.179Z,19.40
2022-08-04T04:29:57.985Z,19.40
2022-08-04T04:32:36.244Z,19.40
2022-08-04T04:35:11.521Z,19.50
2022-08-04T04:37:48.935Z,19.50
2022-08-04T04:39:57.755Z,19.60
2022-08-04T04:42:21.347Z,19.60
2022-08-04T04:44:46.883Z,19.70
2022-08-04T04:47:03.744Z,19.70
2022-08-04T04:49:35.240Z,19.70
2022-08-04T04:52:20.622Z,19.80
2022-08-04T04:54:44.186Z,19.80
2022-08-04T04:57:23.147Z,19.90
2022-08-04T05:00:12.334Z,19.90
2022-08-04T05:02:29.478Z,20.00
2022-08-04T05:04:53.328Z,20.10
2022-08-04T05:07:50.487Z,20.20
2022-08-04T05:10:10.613Z,20.30
2022-08-04T05:14:33.264Z,20.40
2022-08-04T05:15:12.611Z,20.50
2022-08-04T05:17:30.791Z,20.70
2022-08-04T05:19:54.343Z,20.80
2022-08-04T05:22:00.603Z,20.90
2022-08-04T05:24:09.372Z,21.10
2022-08-04T05:26:18.356Z,21.20
2022-08-04T05:28:28.282Z,21.30
2022-08-04T05:30:37.071Z,21.50
2022-08-04T05:33:00.199Z,21.60
2022-08-04T05:35:09.659Z,21.70
2022-08-04T05:37:17.651Z,21.80
2022-08-04T05:39:34.168Z,21.90
2022-08-04T05:41:45.555Z,22.10
2022-08-04T05:43:50.715Z,22.20
2022-08-04T05:45:54.187Z,22.40
2022-08-04T05:47:57.067Z,22.50
2022-08-04T05:50:03.241Z,22.60
2022-08-04T05:52:09.713Z,22.80
2022-08-04T05:54:13.759Z,22.90
2022-08-04T05:56:18.072Z,23.10
2022-08-04T05:58:21.639Z,23.20
2022-08-04T06:00:40.724Z,23.40
2022-08-04T06:02:47.283Z,23.50
2022-08-04T06:04:51.590Z,23.60
2022-08-04T06:06:55.063Z,23.70
2022-08-04T06:08:58.176Z,23.90
2022-08-04T06:11:06.349Z,24.00
2022-08-04T06:13:49.202Z,24.10
2022-08-04T06:15:40.490Z,24.20
2022-08-04T06:18:35.063Z,24.40
2022-08-04T06:20:34.491Z,24.50
2022-08-04T06:22:42.332Z,24.60
2022-08-04T06:24:48.215Z,24.80
2022-08-04T06:26:52.271Z,24.90
2022-08-04T06:28:55.616Z,25.00
2022-08-04T06:32:26.968Z,25.10
2022-08-04T06:33:54.119Z,25.30
2022-08-04T06:35:59.505Z,25.40
2022-08-04T06:38:03.400Z,25.50
2022-08-04T06:40:31.122Z,25.70
2022-08-04T06:42:34.178Z,25.80
2022-08-04T06:44:41.395Z,26.00
2022-08-04T06:46:44.224Z,26.20
2022-08-04T06:48:47.742Z,26.30
2022-08-04T06:51:24.793Z,26.40
2022-08-04T06:53:15.157Z,26.60
2022-08-04T06:55:19.424Z,26.70
2022-08-04T06:57:31.245Z,26.90
2022-08-04T06:59:36.507Z,27.00
2022-08-04T07:19:09.769Z,28.30
2022-08-04T07:22:18.175Z,28.50
2022-08-04T07:27:51.071Z,28.80
2022-08-04T07:29:54.279Z,29.00
2022-08-04T07:31:58.775Z,29.20
2022-08-04T07:34:11.615Z,29.30
2022-08-04T07:36:24.197Z,29.40
2022-08-04T07:38:33.463Z,29.50
2022-08-04T07:40:41.031Z,29.60
2022-08-04T07:42:44.821Z,29.80
2022-08-04T07:44:48.171Z,29.80
2022-08-04T07:46:51.910Z,29.90
2022-08-04T07:48:55.214Z,30.00
2022-08-04T07:50:58.622Z,30.10
2022-08-04T07:53:54.318Z,30.30
2022-08-04T07:55:27.479Z,30.40
2022-08-04T07:57:40.280Z,30.50
2022-08-04T07:59:48.291Z,30.70
2022-08-04T08:01:54.965Z,30.80
2022-08-04T08:03:59.153Z,30.90
2022-08-04T08:06:31.691Z,31.10
2022-08-04T08:08:31.482Z,31.20
2022-08-04T08:10:34.069Z,31.40
2022-08-04T08:12:51.397Z,31.50
2022-08-04T08:15:22.145Z,31.70
2022-08-04T08:17:58.200Z,31.80
2022-08-04T08:20:33.338Z,32.10
2022-08-04T08:22:38.789Z,32.40
2022-08-04T08:24:42.568Z,32.70
2022-08-04T08:26:45.508Z,32.90
2022-08-04T08:28:48.552Z,33.20
2022-08-04T08:30:52.666Z,33.60
2022-08-04T08:32:55.580Z,33.80
2022-08-04T08:34:59.545Z,34.00
2022-08-04T08:37:35.098Z,34.30
2022-08-04T08:40:10.893Z,34.60
2022-08-04T08:42:53.920Z,35.00
2022-08-04T08:45:37.810Z,35.40
2022-08-04T08:48:38.058Z,35.60
2022-08-04T08:51:28.715Z,35.80
2022-08-04T08:53:40.404Z,36.00
2022-08-04T08:56:39.738Z,36.00
2022-08-04T08:59:07.342Z,35.80
2022-08-04T09:01:51.668Z,35.60
2022-08-04T09:04:04.981Z,35.30
2022-08-04T09:06:27.483Z,35.00
2022-08-04T09:09:14.170Z,34.70
2022-08-04T09:11:22.680Z,34.50
2022-08-04T09:13:35.557Z,34.40
2022-08-04T09:16:00.185Z,34.30
2022-08-04T09:18:29.582Z,34.20
2022-08-04T09:20:49.403Z,34.10
2022-08-04T09:23:26.868Z,34.10
2022-08-04T09:25:58.525Z,34.00
2022-08-04T09:28:37.228Z,34.00
2022-08-04T09:30:58.138Z,33.90
2022-08-04T09:33:45.366Z,34.00
2022-08-04T09:36:26.001Z,34.00
2022-08-04T09:38:52.429Z,34.00
2022-08-04T09:41:48.623Z,33.90
2022-08-04T09:44:50.090Z,33.90
2022-08-04T09:46:47.261Z,34.00
2022-08-04T09:49:21.815Z,33.90
2022-08-04T09:51:58.169Z,33.90
2022-08-04T09:54:29.337Z,33.90
2022-08-04T09:56:55.005Z,34.00
2022-08-04T09:59:24.405Z,34.10
2022-08-04T10:01:35.223Z,34.20
2022-08-04T10:03:45.530Z,34.20
2022-08-04T10:06:08.787Z,34.30
2022-08-04T10:08:44.622Z,34.40
2022-08-04T10:11:08.496Z,34.30
2022-08-04T10:14:01.052Z,34.30
2022-08-04T10:16:39.391Z,34.30
2022-08-04T10:18:53.209Z,34.30
2022-08-04T10:21:08.896Z,34.30
2022-08-04T10:23:56.186Z,34.40
2022-08-04T10:26:38.745Z,34.40
2022-08-04T10:28:52.462Z,34.40
2022-08-04T10:31:09.998Z,34.40
2022-08-04T10:33:26.644Z,34.40
2022-08-04T10:35:37.984Z,34.40
2022-08-04T10:38:06.575Z,34.40
2022-08-04T10:40:36.460Z,34.40
2022-08-04T10:42:50.507Z,34.40
2022-08-04T10:45:20.658Z,34.40
2022-08-04T10:47:44.324Z,34.50
2022-08-04T10:50:00.703Z,34.60
2022-08-04T10:52:31.430Z,34.70
2022-08-04T10:54:50.656Z,34.80
2022-08-04T10:57:03.867Z,34.90
2022-08-04T11:00:04.547Z,35.00
2022-08-04T11:02:40.227Z,35.10
2022-08-04T11:04:49.071Z,35.10
2022-08-04T11:06:53.185Z,35.10
2022-08-04T11:08:57.220Z,35.20
2022-08-04T11:11:07.972Z,35.20
2022-08-04T11:13:30.090Z,35.30
2022-08-04T11:15:41.044Z,35.40
2022-08-04T11:17:57.814Z,35.40
2022-08-04T11:20:34.469Z,35.40
2022-08-04T11:22:55.707Z,35.40
2022-08-04T11:25:25.048Z,35.50
2022-08-04T11:27:43.549Z,35.50
2022-08-04T11:30:09.448Z,35.50
2022-08-04T11:33:05.294Z,35.50
2022-08-04T11:35:14.184Z,35.50
2022-08-04T11:37:24.844Z,35.40
2022-08-04T11:39:43.921Z,35.50
2022-08-04T11:42:10.808Z,35.50
2022-08-04T11:44:24.375Z,35.60
2022-08-04T11:46:39.954Z,35.80
2022-08-04T11:49:29.974Z,35.90
2022-08-04T11:51:35.169Z,36.00
2022-08-04T11:53:40.137Z,36.10
2022-08-04T11:56:07.526Z,36.10
2022-08-04T11:58:07.564Z,36.10
2022-08-04T12:00:15.213Z,36.20
2022-08-04T12:02:42.334Z,36.20
2022-08-04T12:05:09.424Z,36.20
2022-08-04T12:08:12.580Z,36.30
2022-08-04T12:11:02.251Z,36.30
2022-08-04T12:13:28.724Z,36.30
2022-08-04T12:15:48.112Z,36.30
2022-08-04T12:17:59.857Z,36.30
2022-08-04T12:20:31.639Z,36.20
2022-08-04T12:22:40.668Z,36.10
2022-08-04T12:25:01.757Z,36.00
2022-08-04T12:27:31.006Z,36.00
2022-08-04T12:29:36.486Z,36.00
2022-08-04T12:31:49.761Z,36.00
2022-08-04T12:34:06.637Z,36.10
2022-08-04T12:36:40.815Z,36.20
2022-08-04T12:39:01.941Z,36.20
2022-08-04T12:41:07.442Z,36.30
2022-08-04T12:43:18.348Z,36.40
2022-08-04T12:45:22.636Z,36.30
2022-08-04T12:47:36.342Z,36.40
2022-08-04T12:50:00.958Z,36.30
2022-08-04T12:52:17.964Z,36.40
2022-08-04T12:54:32.229Z,36.40
2022-08-04T12:56:37.974Z,36.50
2022-08-04T12:58:49.515Z,36.50
2022-08-04T13:01:03.499Z,36.60
2022-08-04T13:04:06.493Z,36.70
2022-08-04T13:06:35.629Z,36.70
2022-08-04T13:08:41.844Z,36.80
2022-08-04T13:10:57.837Z,36.70
2022-08-04T13:13:06.322Z,36.60
2022-08-04T13:15:18.930Z,36.60
2022-08-04T13:17:23.037Z,36.50
2022-08-04T13:19:56.347Z,36.50
2022-08-04T13:22:05.591Z,36.50
2022-08-04T13:24:22.759Z,36.60
2022-08-04T13:26:42.585Z,36.50
2022-08-04T13:29:01.327Z,36.50
2022-08-04T13:31:24.122Z,36.40
2022-08-04T13:34:05.408Z,36.40
2022-08-04T13:36:12.394Z,36.30
2022-08-04T13:38:19.541Z,36.30
2022-08-04T13:40:30.802Z,36.30
2022-08-04T13:42:36.918Z,36.40
2022-08-04T13:44:44.431Z,36.40
2022-08-04T13:46:53.447Z,36.40
2022-08-04T13:51:25.533Z,36.50
2022-08-04T13:53:58.781Z,36.50
2022-08-04T13:56:08.349Z,36.50
2022-08-04T13:58:23.764Z,36.50
2022-08-04T14:00:46.337Z,36.40
2022-08-04T14:03:23.834Z,36.30
2022-08-04T14:05:36.908Z,36.30
2022-08-04T14:08:17.366Z,36.20
2022-08-04T14:10:22.748Z,36.10
2022-08-04T14:12:46.374Z,36.10
2022-08-04T14:14:53.071Z,36.10
2022-08-04T14:17:17.141Z,36.10
2022-08-04T14:19:29.223Z,36.10
2022-08-04T14:21:39.885Z,36.10
2022-08-04T14:23:57.820Z,36.10
2022-08-04T14:26:00.509Z,36.10
2022-08-04T14:28:06.307Z,36.00
2022-08-04T14:30:40.977Z,35.90
2022-08-04T14:34:02.945Z,35.90
2022-08-04T14:35:58.838Z,35.90
2022-08-04T14:38:11.728Z,35.90
2022-08-04T14:40:31.453Z,36.00
2022-08-04T14:42:59.859Z,36.00
2022-08-04T14:45:03.880Z,36.00
2022-08-04T14:47:13.085Z,36.00
2022-08-04T14:49:17.276Z,36.00
2022-08-04T14:51:26.282Z,35.90
2022-08-04T14:53:55.268Z,35.90
2022-08-04T14:56:00.180Z,35.90
2022-08-04T14:58:33.866Z,35.90
2022-08-04T15:00:37.446Z,36.00
2022-08-04T15:02:42.793Z,36.00
2022-08-04T15:04:46.778Z,36.00
2022-08-04T15:07:16.885Z,36.00
2022-08-04T15:09:24.221Z,36.00
2022-08-04T15:11:47.321Z,36.00
2022-08-04T15:13:49.990Z,36.00
2022-08-04T15:16:54.259Z,35.90
2022-08-04T15:19:00.800Z,35.90
2022-08-04T15:21:08.314Z,36.00
2022-08-04T15:23:11.170Z,36.00
2022-08-04T15:25:15.656Z,36.10
2022-08-04T15:27:26.686Z,36.20
2022-08-04T15:30:00.615Z,36.10
2022-08-04T15:32:09.211Z,36.10
2022-08-04T15:34:17.749Z,36.00
2022-08-04T15:36:56.126Z,36.00
2022-08-04T15:40:16.767Z,36.00
2022-08-04T15:43:09.163Z,35.80
2022-08-04T15:46:41.203Z,35.80
2022-08-04T15:48:04.998Z,35.80
2022-08-04T15:50:13.763Z,35.80
2022-08-04T15:52:59.650Z,35.80
2022-08-04T15:55:45.981Z,35.80
2022-08-04T15:58:05.442Z,35.80
2022-08-04T16:00:14.835Z,35.90
2022-08-04T16:02:36.404Z,35.90
2022-08-04T16:04:39.329Z,36.00
2022-08-04T16:06:44.626Z,36.00
2022-08-04T16:09:00.708Z,35.90
2022-08-04T16:11:05.733Z,35.90
2022-08-04T16:13:24.028Z,35.90
2022-08-04T16:16:03.899Z,36.00
2022-08-04T16:18:25.340Z,35.90
2022-08-04T16:20:36.897Z,35.90
2022-08-04T16:23:53.533Z,35.80
2022-08-04T16:25:56.582Z,35.80
2022-08-04T16:28:02.830Z,35.70
2022-08-04T16:30:15.644Z,35.60
2022-08-04T16:32:42.035Z,35.50
2022-08-04T16:35:03.732Z,35.40
2022-08-04T16:37:09.277Z,35.20
2022-08-04T16:39:19.317Z,35.00
2022-08-04T16:41:42.490Z,34.60
2022-08-04T16:43:45.048Z,34.30
2022-08-04T16:46:04.052Z,34.10
2022-08-04T16:48:11.415Z,33.80
2022-08-04T16:50:24.460Z,33.60
2022-08-04T16:52:28.334Z,33.50
2022-08-04T16:54:35.126Z,33.30
2022-08-04T16:56:37.924Z,33.20
2022-08-04T16:58:53.060Z,33.20
2022-08-04T17:00:57.578Z,33.00
2022-08-04T17:03:09.576Z,33.00
2022-08-04T17:05:39.824Z,32.90
2022-08-04T17:08:13.138Z,32.90
2022-08-04T17:10:17.301Z,32.80
2022-08-04T17:12:20.139Z,32.70
2022-08-04T17:14:31.265Z,32.70
2022-08-04T17:16:40.246Z,32.70
2022-08-04T17:18:51.192Z,32.60
2022-08-04T17:21:01.275Z,32.50
2022-08-04T17:24:14.616Z,32.50
2022-08-04T17:25:55.503Z,32.50
2022-08-04T17:28:09.616Z,32.40
2022-08-04T17:30:30.136Z,32.30
2022-08-04T17:32:35.597Z,32.30
2022-08-04T17:34:50.395Z,32.20
2022-08-04T17:36:52.981Z,32.20
2022-08-04T17:39:04.386Z,32.20
2022-08-04T17:41:19.332Z,32.10
2022-08-04T17:44:04.018Z,32.00
2022-08-04T17:46:45.433Z,32.00
2022-08-04T17:49:07.082Z,31.90
2022-08-04T17:51:17.394Z,31.80
2022-08-04T17:53:52.914Z,31.80
2022-08-04T17:56:06.771Z,31.70
2022-08-04T17:58:23.161Z,31.60
2022-08-04T18:00:28.846Z,31.60
2022-08-04T18:02:37.103Z,31.60
2022-08-04T18:05:05.115Z,31.50
2022-08-04T18:08:38.622Z,31.40
2022-08-04T18:10:32.923Z,31.30
2022-08-04T18:12:35.678Z,31.30
2022-08-04T18:14:53.699Z,31.20
2022-08-04T18:16:56.482Z,31.10
2022-08-04T18:19:10.560Z,31.00
2022-08-04T18:21:15.299Z,31.00
2022-08-04T18:23:31.975Z,31.00
2022-08-04T18:25:51.166Z,30.90
2022-08-04T18:27:57.379Z,30.90
2022-08-04T18:30:33.373Z,30.80
2022-08-04T18:32:32.997Z,30.80
2022-08-04T18:34:40.927Z,30.70
2022-08-04T18:36:59.224Z,30.60
2022-08-04T18:39:15.878Z,30.60
2022-08-04T18:41:22.689Z,30.50
2022-08-04T18:43:28.183Z,30.40
2022-08-04T18:45:34.520Z,30.40
2022-08-04T18:47:59.169Z,30.30
2022-08-04T18:52:59.775Z,30.20
2022-08-04T18:55:05.220Z,30.10
2022-08-04T18:57:58.680Z,30.10
2022-08-04T18:59:33.492Z,30.10
2022-08-04T19:02:13.064Z,30.00
2022-08-04T19:04:03.428Z,29.90
2022-08-04T19:06:52.592Z,29.80
2022-08-04T19:08:55.353Z,29.70
2022-08-04T19:11:00.838Z,29.70
2022-08-04T19:13:25.436Z,29.60
2022-08-04T19:15:34.516Z,29.60
2022-08-04T19:17:57.110Z,29.60
2022-08-04T19:20:00.881Z,29.50
2022-08-04T19:22:07.283Z,29.50
2022-08-04T19:24:31.751Z,29.40
2022-08-04T19:26:36.813Z,29.40
2022-08-04T19:28:40.399Z,29.20
2022-08-04T19:30:43.528Z,29.20
2022-08-04T19:32:48.390Z,29.10
2022-08-04T19:34:52.136Z,29.10
2022-08-04T19:36:54.895Z,29.00
2022-08-04T19:38:58.493Z,29.00
2022-08-04T19:41:14.248Z,28.90
2022-08-04T19:43:36.378Z,28.90
2022-08-04T19:45:46.611Z,28.80
2022-08-04T19:48:16.138Z,28.70
2022-08-04T19:50:13.739Z,28.70
2022-08-04T19:52:34.255Z,28.70
2022-08-04T19:54:40.887Z,28.60
2022-08-04T19:56:46.499Z,28.60
2022-08-04T19:58:52.495Z,28.50
2022-08-04T20:00:58.178Z,28.40
2022-08-04T20:03:01.195Z,28.40
2022-08-04T20:05:04.384Z,28.40
2022-08-04T20:07:23.865Z,28.40
2022-08-04T20:09:27.226Z,28.30
2022-08-04T20:11:29.923Z,28.30
2022-08-04T20:13:37.742Z,28.20
2022-08-04T20:15:55.517Z,28.20
2022-08-04T20:18:36.433Z,28.10
2022-08-04T20:20:33.690Z,28.10
2022-08-04T20:22:52.498Z,28.00
2022-08-04T20:25:01.085Z,28.00
2022-08-04T20:27:23.569Z,28.00
2022-08-04T20:29:40.114Z,28.00
2022-08-04T20:31:43.621Z,28.00
2022-08-04T20:33:49.050Z,27.90
2022-08-04T20:36:05.148Z,27.90
2022-08-04T20:38:33.209Z,27.90
2022-08-04T20:40:36.882Z,27.90
2022-08-04T20:42:47.123Z,27.80
2022-08-04T20:44:53.588Z,27.80
2022-08-04T20:46:57.251Z,27.80
2022-08-04T20:49:00.022Z,27.80
2022-08-04T20:51:03.640Z,27.80
2022-08-04T20:53:16.367Z,27.80
2022-08-04T20:55:21.269Z,27.80
2022-08-04T20:57:49.273Z,27.70
2022-08-04T20:59:59.863Z,27.70
2022-08-04T21:02:05.686Z,27.60
2022-08-04T21:04:28.851Z,27.60
2022-08-04T21:06:34.331Z,27.60
2022-08-04T21:08:39.935Z,27.50
2022-08-04T21:10:47.526Z,27.50
2022-08-04T21:12:50.587Z,27.40
2022-08-04T21:14:54.588Z,27.40
2022-08-04T21:17:00.105Z,27.40
2022-08-04T21:19:04.201Z,27.40
2022-08-04T21:21:14.683Z,27.40
2022-08-04T21:23:19.303Z,27.30
2022-08-04T21:25:22.612Z,27.30
2022-08-04T21:27:25.502Z,27.30
2022-08-04T21:29:35.258Z,27.20
2022-08-04T21:31:50.375Z,27.20
2022-08-04T21:33:53.944Z,27.20
2022-08-04T21:35:56.542Z,27.10
2022-08-04T21:38:01.153Z,27.10
2022-08-04T21:40:13.723Z,27.00
2022-08-04T21:42:42.297Z,27.00
2022-08-04T21:44:41.068Z,27.00
2022-08-04T21:46:44.938Z,26.80
2022-08-04T21:48:50.792Z,26.80
2022-08-04T21:50:55.097Z,26.70
2022-08-04T21:52:59.055Z,26.70
2022-08-04T21:55:02.866Z,26.60
2022-08-04T21:57:06.323Z,26.50
2022-08-04T21:59:14.090Z,26.50
2022-08-04T22:01:21.781Z,26.50
2022-08-04T22:03:51.715Z,26.40
2022-08-04T22:05:57.034Z,26.40
2022-08-04T22:07:59.744Z,26.30
2022-08-04T22:10:06.121Z,26.40
2022-08-04T22:12:11.840Z,26.30
2022-08-04T22:14:14.935Z,26.30
2022-08-04T22:16:17.759Z,26.30
2022-08-04T22:18:20.536Z,26.30
2022-08-04T22:20:28.397Z,26.20
2022-08-04T22:22:35.492Z,26.20
2022-08-04T22:24:40.499Z,26.20
2022-08-04T22:26:43.285Z,26.10
2022-08-04T22:28:46.376Z,26.00
2022-08-04T22:30:52.265Z,26.00
2022-08-04T22:32:55.193Z,26.00
2022-08-04T22:34:57.749Z,25.90
2022-08-04T22:37:35.597Z,25.90
2022-08-04T22:39:56.510Z,25.90
2022-08-04T22:42:03.341Z,25.80
2022-08-04T22:44:08.261Z,25.90
2022-08-04T22:46:26.824Z,25.80
2022-08-04T22:48:32.148Z,25.80
2022-08-04T22:50:34.918Z,25.80
2022-08-04T22:52:51.637Z,25.70
2022-08-04T22:55:06.292Z,25.70
2022-08-04T22:57:21.197Z,25.70
2022-08-04T22:59:44.489Z,25.70
2022-08-04T23:01:57.905Z,25.70
2022-08-04T23:04:04.501Z,25.60
2022-08-04T23:06:11.488Z,25.60
2022-08-04T23:08:15.336Z,25.60
2022-08-04T23:10:25.704Z,25.60
2022-08-04T23:12:30.767Z,25.50
2022-08-04T23:14:36.775Z,25.40
2022-08-04T23:16:40.887Z,25.40
2022-08-04T23:18:48.375Z,25.40
2022-08-04T23:20:52.875Z,25.40
2022-08-04T23:22:55.788Z,25.30
2022-08-04T23:24:58.576Z,25.40
2022-08-04T23:27:02.435Z,25.30
2022-08-04T23:29:05.295Z,25.20
2022-08-04T23:31:10.310Z,25.20
2022-08-04T23:33:13.101Z,25.20
2022-08-04T23:35:18.610Z,25.20
2022-08-04T23:37:25.839Z,25.10
2022-08-04T23:40:03.889Z,25.10
2022-08-04T23:42:01.754Z,25.00
2022-08-04T23:44:05.697Z,25.10
2022-08-04T23:46:13.283Z,25.00
2022-08-04T23:48:19.189Z,25.00
2022-08-04T23:50:35.804Z,25.00
2022-08-04T23:52:43.442Z,24.90
2022-08-04T23:54:46.066Z,24.90
2022-08-04T23:56:52.867Z,24.90
2022-08-04T23:58:57.302Z,24.80
